createdAt,value
2023-04-09T00:00:45.214Z,101890.41
2023-04-09T00:04:08.566Z,101888.66
2023-04-09T00:07:30.413Z,101891.25
2023-04-09T00:10:52.443Z,101891.19
2023-04-09T00:14:14.363Z,101894.59
2023-04-09T00:17:36.675Z,101889.38
2023-04-09T00:21:00.312Z,101875.63
2023-04-09T00:24:22.074Z,101886.78
2023-04-09T00:27:44.255Z,101882.44
2023-04-09T00:31:06.420Z,101878.97
2023-04-09T00:34:29.271Z,101887.53
2023-04-09T00:37:52.555Z,101869.34
2023-04-09T00:41:14.287Z,101877.06
2023-04-09T00:44:36.187Z,101880.44
2023-04-09T00:47:57.978Z,101871.75
2023-04-09T00:51:19.801Z,101881.22
2023-04-09T00:54:43.089Z,101880.34
2023-04-09T00:58:05.076Z,101880.28
2023-04-09T01:01:26.828Z,101882.84
2023-04-09T01:04:49.142Z,101882.78
2023-04-09T01:08:16.961Z,101868.00
2023-04-09T01:11:47.793Z,101891.22
2023-04-09T01:15:12.330Z,101885.13
2023-04-09T01:18:41.812Z,101889.31
2023-04-09T01:22:06.674Z,101890.06
2023-04-09T01:25:44.671Z,101883.03
2023-04-09T01:29:08.878Z,101879.50
2023-04-09T01:32:33.638Z,101881.13
2023-04-09T01:35:56.909Z,101889.75
2023-04-09T01:39:19.496Z,101891.41
2023-04-09T01:42:42.476Z,101886.19
2023-04-09T01:46:06.226Z,101876.56
2023-04-09T01:49:29.113Z,101896.41
2023-04-09T01:52:51.453Z,101888.63
2023-04-09T01:56:13.516Z,101892.00
2023-04-09T01:59:36.248Z,101893.63
2023-04-09T02:03:06.646Z,101891.84
2023-04-09T02:06:35.083Z,101886.59
2023-04-09T02:09:58.318Z,101887.41
2023-04-09T02:13:21.473Z,101895.91
2023-04-09T02:16:44.009Z,101896.72
2023-04-09T02:20:08.843Z,101882.06
2023-04-09T02:23:32.610Z,101868.22
2023-04-09T02:26:54.609Z,101879.31
2023-04-09T02:30:17.852Z,101879.22
2023-04-09T02:33:39.655Z,101880.88
2023-04-09T02:37:02.732Z,101875.63
2023-04-09T02:40:24.808Z,101878.16
2023-04-09T02:43:46.606Z,101879.81
2023-04-09T02:47:08.427Z,101875.44
2023-04-09T02:50:30.165Z,101877.06
2023-04-09T02:53:54.396Z,101878.72
2023-04-09T02:57:16.228Z,101888.09
2023-04-09T03:00:37.943Z,101892.34
2023-04-09T03:03:59.837Z,101879.38
2023-04-09T03:07:21.668Z,101878.47
2023-04-09T03:10:45.035Z,101883.50
2023-04-09T03:14:07.140Z,101884.25
2023-04-09T03:17:32.091Z,101884.19
2023-04-09T03:20:54.030Z,101896.13
2023-04-09T03:24:16.194Z,101863.22
2023-04-09T03:27:40.015Z,101883.97
2023-04-09T03:31:01.873Z,101890.75
2023-04-09T03:34:24.691Z,101884.69
2023-04-09T03:37:46.419Z,101886.34
2023-04-09T03:41:08.194Z,101884.63
2023-04-09T03:44:31.603Z,101892.31
2023-04-09T03:47:53.577Z,101881.16
2023-04-09T03:51:16.029Z,101884.59
2023-04-09T03:54:37.975Z,101885.44
2023-04-09T03:57:59.839Z,101889.72
2023-04-09T04:01:23.391Z,101887.22
2023-04-09T04:04:45.626Z,101891.53
2023-04-09T04:08:07.545Z,101900.97
2023-04-09T04:11:29.318Z,101894.19
2023-04-09T04:14:51.367Z,101905.38
2023-04-09T04:18:14.855Z,101902.88
2023-04-09T04:21:36.883Z,101905.59
2023-04-09T04:24:58.730Z,101901.47
2023-04-09T04:28:21.059Z,101900.78
2023-04-09T04:31:43.193Z,101897.53
2023-04-09T04:35:06.831Z,101903.03
2023-04-09T04:38:29.134Z,101905.00
2023-04-09T04:41:50.959Z,101901.88
2023-04-09T04:45:13.121Z,101902.16
2023-04-09T04:48:34.875Z,101907.66
2023-04-09T04:51:58.206Z,101902.88
2023-04-09T04:55:20.363Z,101899.75
2023-04-09T04:58:42.386Z,101906.91
2023-04-09T05:02:04.662Z,101898.53
2023-04-09T05:05:26.537Z,101897.81
2023-04-09T05:08:50.222Z,101904.84
2023-04-09T05:12:12.141Z,101896.34
2023-04-09T05:15:33.858Z,101901.66
2023-04-09T05:18:55.703Z,101900.91
2023-04-09T05:22:17.975Z,101906.19
2023-04-09T05:25:41.536Z,101913.19
2023-04-09T05:29:03.710Z,101904.66
2023-04-09T05:32:25.498Z,101908.16
2023-04-09T05:35:47.438Z,101905.63
2023-04-09T05:39:09.234Z,101905.66
2023-04-09T05:42:32.660Z,101898.75
2023-04-09T05:45:54.823Z,101900.47
2023-04-09T05:49:16.692Z,101902.19
2023-04-09T05:52:38.789Z,101900.41
2023-04-09T05:56:01.079Z,101902.09
2023-04-09T05:59:24.418Z,101908.06
2023-04-09T06:02:46.762Z,101901.03
2023-04-09T06:06:08.762Z,101907.81
2023-04-09T06:09:30.466Z,101898.16
2023-04-09T06:12:52.341Z,101906.66
2023-04-09T06:16:16.281Z,101915.13
2023-04-09T06:19:38.091Z,101908.16
2023-04-09T06:22:59.827Z,101912.50
2023-04-09T06:26:24.577Z,101912.44
2023-04-09T06:29:46.338Z,101918.41
2023-04-09T06:33:09.612Z,101920.06
2023-04-09T06:36:31.954Z,101913.03
2023-04-09T06:40:01.111Z,101918.09
2023-04-09T06:43:23.669Z,101918.81
2023-04-09T06:46:45.522Z,101924.63
2023-04-09T06:50:10.071Z,101931.28
2023-04-09T06:53:32.026Z,101926.84
2023-04-09T06:56:53.918Z,101926.75
2023-04-09T07:00:17.174Z,101925.63
2023-04-09T07:03:39.383Z,101924.63
2023-04-09T07:07:02.676Z,101933.97
2023-04-09T07:10:24.624Z,101924.06
2023-04-09T07:13:46.657Z,101935.97
2023-04-09T07:17:08.534Z,101930.38
2023-04-09T07:20:30.761Z,101940.59
2023-04-09T07:23:54.193Z,101942.19
2023-04-09T07:27:16.529Z,101940.19
2023-04-09T07:30:38.781Z,101944.22
2023-04-09T07:34:00.819Z,101942.22
2023-04-09T07:37:23.366Z,101947.06
2023-04-09T07:40:47.519Z,101943.28
2023-04-09T07:44:09.727Z,101937.91
2023-04-09T07:47:32.088Z,101929.94
2023-04-09T07:50:54.020Z,101931.63
2023-04-09T07:54:15.873Z,101924.75
2023-04-09T07:57:39.019Z,101934.81
2023-04-09T08:01:00.986Z,101929.44
2023-04-09T08:04:23.287Z,101934.53
2023-04-09T08:07:45.233Z,101936.84
2023-04-09T08:11:07.205Z,101939.22
2023-04-09T08:14:30.985Z,101927.16
2023-04-09T08:17:52.725Z,101935.69
2023-04-09T08:21:14.718Z,101938.13
2023-04-09T08:24:37.298Z,101931.78
2023-04-09T08:27:59.437Z,101933.22
2023-04-09T08:31:22.895Z,101928.53
2023-04-09T08:34:45.923Z,101926.75
2023-04-09T08:38:17.415Z,101930.22
2023-04-09T08:41:44.202Z,101925.06
2023-04-09T08:45:06.917Z,101930.31
2023-04-09T08:48:31.011Z,101925.97
2023-04-09T08:51:53.080Z,101927.69
2023-04-09T08:55:14.967Z,101934.22
2023-04-09T08:58:36.838Z,101932.28
2023-04-09T09:02:08.925Z,101935.69
2023-04-09T09:05:39.419Z,101927.63
2023-04-09T09:09:06.892Z,101928.97
2023-04-09T09:12:42.153Z,101928.88
2023-04-09T09:16:16.852Z,101925.06
2023-04-09T09:19:38.807Z,101925.09
2023-04-09T09:23:02.403Z,101922.31
2023-04-09T09:26:26.382Z,101922.97
2023-04-09T09:29:48.186Z,101930.66
2023-04-09T09:33:11.356Z,101931.38
2023-04-09T09:36:34.346Z,101923.38
2023-04-09T09:40:00.225Z,101922.31
2023-04-09T09:43:22.351Z,101925.69
2023-04-09T09:46:44.308Z,101907.41
2023-04-09T09:50:06.953Z,101927.31
2023-04-09T09:53:30.140Z,101924.78
2023-04-09T09:56:56.778Z,101919.59
2023-04-09T10:00:19.492Z,101923.03
2023-04-09T10:03:44.290Z,101923.00
2023-04-09T10:07:08.397Z,101914.28
2023-04-09T10:10:31.308Z,101917.03
2023-04-09T10:13:59.808Z,101916.91
2023-04-09T10:17:22.290Z,101914.22
2023-04-09T10:20:52.173Z,101922.00
2023-04-09T10:24:14.492Z,101915.69
2023-04-09T10:27:36.696Z,101913.94
2023-04-09T10:31:01.134Z,101919.28
2023-04-09T10:34:24.987Z,101910.44
2023-04-09T10:37:50.904Z,101912.88
2023-04-09T10:41:17.493Z,101915.31
2023-04-09T10:44:41.776Z,101915.97
2023-04-09T10:48:06.180Z,101916.00
2023-04-09T10:51:32.621Z,101911.69
2023-04-09T10:54:54.514Z,101908.31
2023-04-09T10:58:16.757Z,101902.31
2023-04-09T11:01:38.801Z,101907.47
2023-04-09T11:05:11.517Z,101903.06
2023-04-09T11:08:39.638Z,101903.06
2023-04-09T11:12:02.058Z,101905.50
2023-04-09T11:15:24.192Z,101901.13
2023-04-09T11:18:47.086Z,101893.22
2023-04-09T11:22:12.032Z,101903.56
2023-04-09T11:25:35.470Z,101895.75
2023-04-09T11:28:59.238Z,101883.03
2023-04-09T11:32:21.783Z,101900.81
2023-04-09T11:35:43.863Z,101899.69
2023-04-09T11:39:07.424Z,101904.16
2023-04-09T11:42:32.679Z,101888.81
2023-04-09T11:45:56.457Z,101905.13
2023-04-09T11:49:19.442Z,101905.09
2023-04-09T11:52:41.862Z,101903.13
2023-04-09T11:56:06.010Z,101900.41
2023-04-09T11:59:27.931Z,101900.31
2023-04-09T12:02:51.485Z,101893.94
2023-04-09T12:06:13.308Z,101903.44
2023-04-09T12:09:35.465Z,101899.00
2023-04-09T12:13:03.999Z,101891.03
2023-04-09T12:16:26.227Z,101891.59
2023-04-09T12:19:50.110Z,101883.66
2023-04-09T12:23:13.213Z,101884.47
2023-04-09T12:26:35.164Z,101883.56
2023-04-09T12:29:58.735Z,101886.16
2023-04-09T12:33:20.690Z,101891.41
2023-04-09T12:36:42.831Z,101878.31
2023-04-09T12:40:05.093Z,101881.25
2023-04-09T12:43:27.155Z,101880.84
2023-04-09T12:46:50.244Z,101892.88
2023-04-09T12:50:13.936Z,101886.69
2023-04-09T12:53:35.955Z,101884.19
2023-04-09T12:56:57.991Z,101863.78
2023-04-09T13:00:20.659Z,101880.09
2023-04-09T13:03:45.476Z,101877.47
2023-04-09T13:07:08.137Z,101877.41
2023-04-09T13:10:31.927Z,101853.44
2023-04-09T13:13:54.222Z,101875.75
2023-04-09T13:17:16.906Z,101872.41
2023-04-09T13:20:40.394Z,101874.84
2023-04-09T13:24:02.096Z,101872.97
2023-04-09T13:27:24.126Z,101873.78
2023-04-09T13:30:47.039Z,101870.94
2023-04-09T13:34:08.893Z,101875.16
2023-04-09T13:37:32.120Z,101884.72
2023-04-09T13:40:54.375Z,101876.00
2023-04-09T13:44:16.578Z,101871.69
2023-04-09T13:47:38.381Z,101872.41
2023-04-09T13:51:00.672Z,101861.09
2023-04-09T13:54:23.638Z,101871.50
2023-04-09T13:57:45.615Z,101864.53
2023-04-09T14:01:08.232Z,101860.03
2023-04-09T14:04:31.638Z,101860.03
2023-04-09T14:07:53.603Z,101862.50
2023-04-09T14:11:17.183Z,101859.53
2023-04-09T14:14:39.024Z,101854.06
2023-04-09T14:18:01.165Z,101855.75
2023-04-09T14:21:23.089Z,101847.84
2023-04-09T14:24:45.080Z,101852.06
2023-04-09T14:28:08.304Z,101850.25
2023-04-09T14:31:30.771Z,101850.13
2023-04-09T14:34:52.602Z,101848.34
2023-04-09T14:38:14.256Z,101852.69
2023-04-09T14:41:36.755Z,101855.16
2023-04-09T14:44:59.791Z,101843.66
2023-04-09T14:48:22.903Z,101839.50
2023-04-09T14:51:44.866Z,101849.16
2023-04-09T14:55:12.455Z,101847.59
2023-04-09T14:58:34.701Z,101852.78
2023-04-09T15:01:58.379Z,101842.59
2023-04-09T15:05:20.371Z,101846.06
2023-04-09T15:08:42.220Z,101842.63
2023-04-09T15:12:04.130Z,101843.56
2023-04-09T15:15:26.417Z,101845.44
2023-04-09T15:18:52.511Z,101840.31
2023-04-09T15:22:14.689Z,101837.03
2023-04-09T15:25:37.193Z,101844.13
2023-04-09T15:29:04.116Z,101845.25
2023-04-09T15:32:26.280Z,101839.25
2023-04-09T15:35:49.685Z,101844.47
2023-04-09T15:39:11.780Z,101844.59
2023-04-09T15:42:33.633Z,101841.94
2023-04-09T15:45:55.385Z,101820.56
2023-04-09T15:49:17.503Z,101840.44
2023-04-09T15:52:41.050Z,101834.44
2023-04-09T15:56:02.568Z,101847.69
2023-04-09T15:59:24.533Z,101840.78
2023-04-09T16:02:46.446Z,101841.06
2023-04-09T16:06:10.122Z,101844.59
2023-04-09T16:09:33.785Z,101842.13
2023-04-09T16:12:56.286Z,101841.34
2023-04-09T16:16:18.692Z,101846.63
2023-04-09T16:19:40.572Z,101847.47
2023-04-09T16:23:02.462Z,101850.19
2023-04-09T16:26:25.643Z,101850.38
2023-04-09T16:29:47.818Z,101845.16
2023-04-09T16:33:09.962Z,101854.00
2023-04-09T16:36:33.712Z,101848.28
2023-04-09T16:39:56.773Z,101844.84
2023-04-09T16:43:20.204Z,101848.50
2023-04-09T16:46:43.737Z,101851.34
2023-04-09T16:50:10.621Z,101846.56
2023-04-09T16:53:32.547Z,101857.16
2023-04-09T16:56:54.891Z,101855.69
2023-04-09T17:00:18.665Z,101860.28
2023-04-09T17:03:40.518Z,101861.50
2023-04-09T17:07:02.413Z,101862.75
2023-04-09T17:10:24.511Z,101862.34
2023-04-09T17:13:46.404Z,101860.16
2023-04-09T17:17:10.186Z,101859.75
2023-04-09T17:20:32.164Z,101861.06
2023-04-09T17:23:54.266Z,101872.81
2023-04-09T17:27:16.100Z,101866.44
2023-04-09T17:30:38.048Z,101866.84
2023-04-09T17:34:01.362Z,101869.78
2023-04-09T17:37:23.532Z,101870.19
2023-04-09T17:40:45.472Z,101869.69
2023-04-09T17:44:07.339Z,101874.44
2023-04-09T17:47:29.247Z,101884.38
2023-04-09T17:50:53.089Z,101893.53
2023-04-09T17:54:15.268Z,101890.13
2023-04-09T17:57:37.654Z,101892.03
2023-04-09T18:00:59.786Z,101901.75
2023-04-09T18:04:22.572Z,101897.53
2023-04-09T18:07:46.199Z,101899.34
2023-04-09T18:11:13.359Z,101898.63
2023-04-09T18:14:36.470Z,101907.47
2023-04-09T18:17:58.713Z,101907.66
2023-04-09T18:21:20.663Z,101910.38
2023-04-09T18:24:44.168Z,101908.81
2023-04-09T18:28:06.844Z,101906.34
2023-04-09T18:31:29.047Z,101918.69
2023-04-09T18:34:52.259Z,101918.78
2023-04-09T18:38:14.438Z,101915.47
2023-04-09T18:41:37.925Z,101916.47
2023-04-09T18:45:00.097Z,101914.81
2023-04-09T18:48:21.887Z,101909.75
2023-04-09T18:51:43.739Z,101915.97
2023-04-09T18:55:06.152Z,101913.50
2023-04-09T18:58:29.289Z,101914.41
2023-04-09T19:01:59.122Z,101911.16
2023-04-09T19:05:21.082Z,101920.75
2023-04-09T19:08:43.283Z,101919.94
2023-04-09T19:12:06.136Z,101926.16
2023-04-09T19:15:30.713Z,101921.09
2023-04-09T19:18:52.741Z,101921.19
2023-04-09T19:22:15.178Z,101919.59
2023-04-09T19:25:37.221Z,101920.56
2023-04-09T19:28:59.235Z,101927.59
2023-04-09T19:32:22.357Z,101933.72
2023-04-09T19:35:44.599Z,101937.25
2023-04-09T19:39:07.785Z,101921.88
2023-04-09T19:42:29.890Z,101941.75
2023-04-09T19:45:51.616Z,101947.81
2023-04-09T19:49:17.774Z,101943.56
2023-04-09T19:52:41.645Z,101940.22
2023-04-09T19:56:03.754Z,101941.97
2023-04-09T19:59:26.320Z,101942.88
2023-04-09T20:02:48.130Z,101936.88
2023-04-09T20:06:11.912Z,101941.22
2023-04-09T20:09:34.196Z,101943.88
2023-04-09T20:12:56.317Z,101923.22
2023-04-09T20:16:18.427Z,101930.16
2023-04-09T20:19:40.224Z,101932.72
2023-04-09T20:23:03.628Z,101940.56
2023-04-09T20:26:25.925Z,101934.56
2023-04-09T20:29:48.249Z,101946.72
2023-04-09T20:33:10.085Z,101955.38
2023-04-09T20:36:32.489Z,101951.09
2023-04-09T20:39:56.274Z,101958.06
2023-04-09T20:43:18.339Z,101943.41
2023-04-09T20:46:40.902Z,101944.28
2023-04-09T20:50:03.486Z,101943.44
2023-04-09T20:53:25.632Z,101943.47
2023-04-09T20:56:48.951Z,101939.22
2023-04-09T21:00:11.623Z,101941.81
2023-04-09T21:03:34.923Z,101942.69
2023-04-09T21:06:56.893Z,101948.75
2023-04-09T21:10:18.841Z,101944.44
2023-04-09T21:13:54.055Z,101943.56
2023-04-09T21:17:16.942Z,101943.59
2023-04-09T21:20:38.692Z,101938.44
2023-04-09T21:24:00.437Z,101942.75
2023-04-09T21:27:23.535Z,101938.44
2023-04-09T21:30:47.180Z,101936.72
2023-04-09T21:34:09.443Z,101941.03
2023-04-09T21:37:33.156Z,101932.44
2023-04-09T21:40:54.927Z,101932.41
2023-04-09T21:44:16.983Z,101922.06
2023-04-09T21:47:40.306Z,101929.81
2023-04-09T21:51:02.387Z,101930.69
2023-04-09T21:54:24.197Z,101935.00
2023-04-09T21:57:46.183Z,101930.69
2023-04-09T22:01:15.725Z,101934.13
2023-04-09T22:04:43.161Z,101938.41
2023-04-09T22:08:04.788Z,101933.22
2023-04-09T22:11:28.558Z,101932.38
2023-04-09T22:14:50.565Z,101929.78
2023-04-09T22:18:12.513Z,101934.94
2023-04-09T22:21:35.754Z,101935.78
2023-04-09T22:24:57.740Z,101935.78
2023-04-09T22:28:19.978Z,101938.31
2023-04-09T22:31:42.026Z,101942.63
2023-04-09T22:35:04.296Z,101940.88
2023-04-09T22:38:28.085Z,101936.56
2023-04-09T22:41:50.084Z,101936.53
2023-04-09T22:45:12.412Z,101933.06
2023-04-09T22:48:40.670Z,101932.19
2023-04-09T22:52:06.661Z,101930.41
2023-04-09T22:55:30.074Z,101937.25
2023-04-09T22:58:52.056Z,101937.22
2023-04-09T23:02:14.341Z,101935.50
2023-04-09T23:05:36.495Z,101928.53
2023-04-09T23:08:59.954Z,101934.56
2023-04-09T23:12:23.345Z,101934.50
2023-04-09T23:15:45.423Z,101927.59
2023-04-09T23:19:07.286Z,101926.66
2023-04-09T23:22:29.127Z,101934.38
2023-04-09T23:25:50.978Z,101931.72
2023-04-09T23:29:14.566Z,101930.00
2023-04-09T23:32:37.049Z,101930.00
2023-04-09T23:35:59.160Z,101929.13
2023-04-09T23:39:21.190Z,101922.22
2023-04-09T23:42:43.371Z,101922.19
2023-04-09T23:46:06.900Z,101913.50
2023-04-09T23:49:28.948Z,101928.19
2023-04-09T23:52:51.662Z,101929.06
2023-04-09T23:56:14.923Z,101924.75
2023-04-09T23:59:37.550Z,101926.50
